Página principal
METAR-TAF:

METAR-TAF

Aeroportos :

Aeroporto Internacional de Tashkent

Tashkent, Uzbequistão

latitude: 41-16N, longitude: 069-16E, altura: 489 m

Observação actual do tempo

O boletim foi feito há 22 minutos, às 00:00 UTC
Vento 8 kt de es-nordeste
Temperatura 3°C
Humidade 56%
Pressão 1027 hPa
Visibilidade 10 km ou mais
sem nuvens abaixo de 1500 metros e sem cumulonimbus

METAR: UTTT 180000Z 07008KT CAVOK 03/M05 Q1027 R08R/CLRD70 NOSIG

Hora: 05:22 (00:22 UTC)

Previsão

O boletim foi feito há 1 hora e 22 minutos, às 23:00 UTC
Previsão válida de 18 às 00 UTC a 18 às 24 UTC
Vento 10 kt de este
Visibilidade: 7000 m
Temporariamente
de 18 às 00 UTC a 18 às 03 UTC
Vento 2 kt com direcção variável
Visibilidade: 0800 m
Nuvens dispersasa uma altura de 800 ft
nevoeiro

TAF: UTTT 172300Z 1800/1824 09010KT 7000 NSC TEMPO 1800/1803 VRB02KT 0800 FG SCT008

Observações e previsões do tempo de mais de 4000 aeroportos (mensagens METAR e TAF).

As estações disponíveis são os pontos amarelos e vermelhos sobre o mapa.

Mova o rato sobre o mapa para ver o nome da estação.

Depois clique no ponto para visualizar as observações e previsões meteorológicas.

Para alterar o mapa : clique nos botões verdes com uma cruz preta para aumentar o zoom; no botão verde com uma pitada de zoom; ou nas setas verdes para mapas adjacentes.


METAR-TAF: